• Our mission is to promote and protect San Carlos Airport and its flight operations, and to enhance the safety and spirit of general aviation through participation in local community activities.


  • The San Carlos Airport Association (SCAPA) has represented pilots and friends of the Airport since our founding in 1986.

Live View of San Carlos Airport (SQL)

San Carlos METAR

  • KSQL 250955Z AUTO 16012G15KT 10SM FEW028 SCT035 OVC046 18/13 A3001 RMK AO2

    A METAR describes the current weather at an airport. Click here to learn how to read a METAR.

SQL Notams

  • Click here and enter KSQL in the Locations box to read the Notices to Airmen (Notams) about San Carlos Airport.

ASOS from Half Moon Bay Airport (HAF)



  • Email: webmaster at sancarlosairport.org
  • Our mailing address:
    San Carlos Airport Association
    P.O. Box 1183
    San Carlos, CA 94070

Aviation Photog. 11/30/12 in Berkeley

SCAPA is pleased to help publicize the following aviation-related event.

Kala Artist Project Space presents:
Lift, Weight, Thrust, Drag
A photography exhibit by Mr. Alexis M. Esguerra

Everyone is invited to a memorable opening Friday 30 November 2012 from 6-8pm, at 2990 San Pablo Avenue, Berkeley, California 94702. (510) 841-7000

Light refreshments will be served. Photographs will be available for purchase.

artist contact info: jetatrainer@yahoo.com
(707) 342-8422